createdAt,value
2023-04-18T00:02:07.216Z,8.20
2023-04-18T00:04:35.676Z,7.50
2023-04-18T00:07:04.132Z,7.57
2023-04-18T00:09:32.435Z,7.20
2023-04-18T00:12:01.630Z,7.95
2023-04-18T00:14:30.169Z,7.53
2023-04-18T00:16:58.522Z,8.15
2023-04-18T00:19:28.281Z,7.78
2023-04-18T00:21:58.080Z,7.60
2023-04-18T00:24:27.025Z,8.23
2023-04-18T00:26:55.513Z,7.85
2023-04-18T00:29:23.789Z,7.68
2023-04-18T00:31:52.073Z,7.15
2023-04-18T00:34:20.437Z,6.32
2023-04-18T00:36:50.062Z,7.75
2023-04-18T00:39:18.295Z,8.50
2023-04-18T00:41:46.650Z,7.82
2023-04-18T00:44:15.067Z,8.50
2023-04-18T00:46:43.382Z,7.65
2023-04-18T00:49:12.971Z,8.68
2023-04-18T00:51:41.374Z,9.38
2023-04-18T00:54:13.454Z,9.05
2023-04-18T00:56:42.145Z,7.53
2023-04-18T00:59:10.785Z,9.27
2023-04-18T01:01:40.313Z,8.55
2023-04-18T01:04:09.429Z,9.43
2023-04-18T01:06:38.000Z,10.73
2023-04-18T01:09:06.663Z,10.73
2023-04-18T01:11:36.380Z,11.20
2023-04-18T01:14:05.929Z,11.17
2023-04-18T01:16:34.827Z,11.05
2023-04-18T01:19:03.729Z,11.77
2023-04-18T01:21:33.930Z,9.27
2023-04-18T01:24:09.293Z,11.30
2023-04-18T01:26:37.590Z,12.70
2023-04-18T01:29:06.313Z,12.63
2023-04-18T01:31:36.079Z,13.45
2023-04-18T01:34:04.431Z,13.00
2023-04-18T01:36:33.158Z,13.57
2023-04-18T01:39:01.833Z,12.45
2023-04-18T01:41:32.880Z,13.73
2023-04-18T01:44:01.817Z,12.68
2023-04-18T01:46:30.168Z,12.02
2023-04-18T01:49:00.768Z,7.65
2023-04-18T01:53:57.141Z,9.07
2023-04-18T01:56:25.370Z,13.00
2023-04-18T01:58:54.957Z,14.80
2023-04-18T02:01:23.307Z,13.07
2023-04-18T02:03:51.783Z,14.80
2023-04-18T02:06:20.248Z,12.45
2023-04-18T02:08:48.539Z,13.98
2023-04-18T02:11:16.822Z,12.45
2023-04-18T02:13:45.054Z,14.13
2023-04-18T02:16:14.866Z,14.43
2023-04-18T02:18:44.778Z,13.85
2023-04-18T02:21:13.230Z,13.35
2023-04-18T02:23:41.608Z,13.93
2023-04-18T02:26:09.889Z,12.88
2023-04-18T02:28:39.193Z,15.70
2023-04-18T02:31:14.481Z,9.32
2023-04-18T02:33:45.395Z,11.02
2023-04-18T02:36:13.804Z,13.27
2023-04-18T02:38:42.173Z,14.32
2023-04-18T02:41:14.998Z,11.90
2023-04-18T02:43:43.744Z,11.18
2023-04-18T02:46:12.030Z,7.82
2023-04-18T02:48:40.342Z,14.57
2023-04-18T02:51:10.840Z,11.05
2023-04-18T02:53:39.120Z,13.50
2023-04-18T02:56:08.485Z,16.15
2023-04-18T02:58:37.000Z,10.15
2023-04-18T03:01:05.321Z,11.75
2023-04-18T03:03:33.634Z,13.80
2023-04-18T03:06:01.940Z,11.93
2023-04-18T03:08:31.579Z,14.82
2023-04-18T03:11:00.035Z,12.83
2023-04-18T03:13:28.277Z,14.45
2023-04-18T03:15:56.503Z,13.35
2023-04-18T03:18:24.814Z,14.02
2023-04-18T03:20:53.220Z,12.82
2023-04-18T03:23:21.943Z,9.90
2023-04-18T03:25:51.564Z,13.98
2023-04-18T03:28:19.890Z,10.75
2023-04-18T03:30:48.215Z,12.93
2023-04-18T03:33:17.134Z,14.70
2023-04-18T03:35:45.465Z,13.20
2023-04-18T03:38:13.669Z,13.20
2023-04-18T03:40:44.541Z,13.98
2023-04-18T03:43:14.673Z,14.30
2023-04-18T03:45:44.104Z,11.43
2023-04-18T03:48:12.426Z,13.10
2023-04-18T03:50:40.910Z,12.43
2023-04-18T03:53:09.134Z,14.77
2023-04-18T03:55:37.503Z,14.70
2023-04-18T03:58:05.769Z,14.18
2023-04-18T04:00:35.488Z,15.80
2023-04-18T04:03:04.001Z,11.73
2023-04-18T04:05:32.403Z,14.23
2023-04-18T04:08:00.647Z,15.57
2023-04-18T04:10:29.054Z,17.00
2023-04-18T04:12:57.338Z,12.95
2023-04-18T04:15:25.562Z,14.65
2023-04-18T04:17:55.232Z,12.60
2023-04-18T04:20:24.837Z,9.47
2023-04-18T04:22:53.993Z,14.85
2023-04-18T04:25:23.930Z,12.02
2023-04-18T04:27:53.700Z,9.13
2023-04-18T04:30:22.737Z,8.97
2023-04-18T04:32:51.121Z,14.88
2023-04-18T04:35:22.402Z,10.43
2023-04-18T04:37:51.728Z,12.13
2023-04-18T04:40:20.106Z,13.18
2023-04-18T04:42:49.206Z,15.30
2023-04-18T04:45:17.668Z,15.05
2023-04-18T04:47:46.000Z,15.50
2023-04-18T04:50:15.827Z,16.65
2023-04-18T04:52:45.573Z,13.38
2023-04-18T04:55:13.978Z,14.47
2023-04-18T04:57:42.248Z,16.88
2023-04-18T05:00:13.715Z,11.27
2023-04-18T05:02:41.998Z,10.60
2023-04-18T05:05:10.680Z,15.98
2023-04-18T05:07:38.939Z,15.57
2023-04-18T05:10:14.379Z,15.18
2023-04-18T05:12:42.790Z,13.35
2023-04-18T05:15:12.375Z,14.15
2023-04-18T05:17:40.722Z,12.93
2023-04-18T05:20:10.416Z,14.60
2023-04-18T05:22:38.730Z,16.80
2023-04-18T05:25:09.442Z,18.00
2023-04-18T05:27:37.678Z,11.15
2023-04-18T05:30:07.024Z,14.00
2023-04-18T05:32:35.327Z,10.20
2023-04-18T05:35:03.770Z,13.60
2023-04-18T05:37:32.077Z,10.45
2023-04-18T05:40:01.071Z,15.20
2023-04-18T05:42:30.886Z,13.98
2023-04-18T05:44:59.317Z,16.50
2023-04-18T05:47:28.632Z,14.88
2023-04-18T05:49:57.000Z,11.48
2023-04-18T05:52:26.133Z,14.25
2023-04-18T05:54:54.431Z,18.08
2023-04-18T05:57:22.697Z,13.25
2023-04-18T05:59:52.384Z,15.45
2023-04-18T06:02:21.160Z,9.70
2023-04-18T06:04:50.051Z,14.68
2023-04-18T06:07:18.421Z,13.30
2023-04-18T06:09:46.758Z,11.43
2023-04-18T06:12:15.034Z,15.93
2023-04-18T06:14:43.332Z,14.07
2023-04-18T06:17:13.991Z,12.90
2023-04-18T06:22:10.277Z,12.50
2023-04-18T06:24:38.556Z,7.60
2023-04-18T06:27:09.376Z,12.98
2023-04-18T06:29:43.867Z,15.95
2023-04-18T06:32:13.462Z,14.43
2023-04-18T06:34:41.726Z,14.90
2023-04-18T06:37:09.977Z,12.35
2023-04-18T06:39:38.263Z,10.98
2023-04-18T06:42:06.620Z,11.98
2023-04-18T06:44:36.004Z,13.13
2023-04-18T06:47:04.362Z,15.32
2023-04-18T06:49:33.962Z,13.73
2023-04-18T06:52:02.277Z,15.30
2023-04-18T06:54:30.592Z,13.23
2023-04-18T06:56:58.812Z,11.30
2023-04-18T06:59:27.101Z,15.30
2023-04-18T07:01:55.390Z,12.88
2023-04-18T07:04:23.826Z,11.32
2023-04-18T07:06:54.065Z,13.10
2023-04-18T07:09:22.766Z,15.82
2023-04-18T07:11:52.684Z,14.43
2023-04-18T07:14:23.692Z,13.25
2023-04-18T07:16:52.002Z,13.55
2023-04-18T07:19:20.298Z,9.68
2023-04-18T07:21:48.705Z,11.32
2023-04-18T07:24:18.331Z,8.98
2023-04-18T07:26:46.570Z,12.13
2023-04-18T07:29:14.835Z,16.08
2023-04-18T07:31:43.065Z,14.13
2023-04-18T07:34:11.751Z,9.77
2023-04-18T07:36:40.314Z,12.20
2023-04-18T07:39:08.592Z,9.95
2023-04-18T07:41:38.234Z,11.40
2023-04-18T07:44:06.698Z,12.57
2023-04-18T07:46:35.091Z,12.63
2023-04-18T07:49:03.620Z,12.77
2023-04-18T07:51:32.339Z,13.23
2023-04-18T07:54:00.705Z,10.88
2023-04-18T07:56:43.807Z,9.13
2023-04-18T07:59:13.837Z,9.60
2023-04-18T08:01:42.269Z,10.25
2023-04-18T08:04:11.019Z,12.25
2023-04-18T08:06:39.558Z,14.27
2023-04-18T08:09:08.217Z,11.18
2023-04-18T08:11:36.545Z,11.27
2023-04-18T08:14:04.780Z,9.20
2023-04-18T08:16:34.442Z,12.30
2023-04-18T08:19:02.718Z,11.30
2023-04-18T08:21:31.129Z,13.68
2023-04-18T08:23:59.715Z,13.05
2023-04-18T08:26:28.205Z,12.68
2023-04-18T08:28:56.564Z,9.65
2023-04-18T08:31:25.020Z,10.80
2023-04-18T08:33:54.811Z,39.85
2023-04-18T08:36:24.876Z,12.13
2023-04-18T08:38:53.306Z,11.70
2023-04-18T08:41:23.170Z,11.57
2023-04-18T08:43:51.854Z,10.52
2023-04-18T08:46:20.230Z,10.27
2023-04-18T08:48:51.315Z,12.55
2023-04-18T08:51:21.609Z,10.90
2023-04-18T08:53:50.616Z,11.45
2023-04-18T08:56:22.386Z,11.43
2023-04-18T08:58:50.870Z,9.02
2023-04-18T09:01:19.159Z,11.35
2023-04-18T09:03:47.670Z,10.00
2023-04-18T09:06:19.362Z,13.50
2023-04-18T09:08:59.134Z,6.00
2023-04-18T09:11:29.007Z,8.48
2023-04-18T09:14:10.905Z,10.90
2023-04-18T09:16:47.215Z,10.90
2023-04-18T09:19:18.895Z,9.30
2023-04-18T09:21:48.706Z,9.27
2023-04-18T09:24:24.115Z,8.23
2023-04-18T09:26:53.679Z,11.25
2023-04-18T09:29:23.433Z,9.45
2023-04-18T09:31:57.329Z,6.80
2023-04-18T09:34:26.466Z,10.20
2023-04-18T09:37:08.427Z,8.43
2023-04-18T09:39:38.836Z,10.43
2023-04-18T09:42:08.014Z,9.40
2023-04-18T09:44:36.346Z,9.65
2023-04-18T09:47:04.636Z,6.53
2023-04-18T09:49:33.751Z,9.25
2023-04-18T09:52:04.685Z,9.02
2023-04-18T09:54:34.383Z,8.65
2023-04-18T09:57:05.062Z,8.93
2023-04-18T09:59:43.066Z,5.18
2023-04-18T10:02:16.448Z,8.60
2023-04-18T10:04:45.726Z,7.68
2023-04-18T10:07:14.373Z,6.57
2023-04-18T10:09:51.847Z,10.00
2023-04-18T10:12:21.941Z,7.45
2023-04-18T10:14:54.812Z,8.77
2023-04-18T10:17:23.180Z,7.78
2023-04-18T10:20:08.021Z,8.98
2023-04-18T10:22:36.626Z,7.32
2023-04-18T10:25:06.222Z,10.05
2023-04-18T10:28:01.259Z,7.97
2023-04-18T10:30:55.050Z,8.05
2023-04-18T10:33:30.822Z,8.50
2023-04-18T10:36:06.153Z,8.82
2023-04-18T10:38:35.346Z,7.93
2023-04-18T10:41:17.258Z,7.35
2023-04-18T10:44:22.719Z,7.70
2023-04-18T10:47:22.212Z,9.95
2023-04-18T10:49:58.313Z,7.75
2023-04-18T10:52:26.918Z,6.82
2023-04-18T10:55:02.635Z,7.55
2023-04-18T10:57:39.167Z,7.50
2023-04-18T11:00:13.196Z,7.85
2023-04-18T11:02:49.294Z,7.22
2023-04-18T11:05:22.692Z,9.05
2023-04-18T11:07:51.186Z,8.02
2023-04-18T11:10:20.979Z,6.28
2023-04-18T11:12:49.573Z,7.78
2023-04-18T11:15:22.112Z,7.85
2023-04-18T11:17:58.527Z,6.07
2023-04-18T11:20:26.933Z,8.18
2023-04-18T11:22:56.654Z,6.78
2023-04-18T11:25:27.526Z,7.30
2023-04-18T11:27:56.196Z,7.25
2023-04-18T11:30:26.102Z,7.38
2023-04-18T11:32:55.072Z,6.75
2023-04-18T11:35:23.497Z,7.35
2023-04-18T11:37:52.057Z,4.55
2023-04-18T11:40:20.424Z,7.32
2023-04-18T11:42:48.680Z,6.35
2023-04-18T11:45:17.165Z,6.13
2023-04-18T11:47:47.407Z,6.07
2023-04-18T11:50:15.749Z,5.88
2023-04-18T11:52:44.058Z,5.88
2023-04-18T11:55:17.881Z,3.53
2023-04-18T11:57:53.935Z,4.45
2023-04-18T12:00:33.629Z,7.80
2023-04-18T12:03:13.346Z,6.87
2023-04-18T12:05:43.279Z,7.78
2023-04-18T12:08:13.228Z,7.97
2023-04-18T12:10:47.723Z,7.35
2023-04-18T12:13:16.266Z,8.30
2023-04-18T12:15:45.705Z,7.50
2023-04-18T12:18:16.806Z,8.55
2023-04-18T12:20:50.383Z,8.50
2023-04-18T12:23:35.550Z,9.25
2023-04-18T12:26:04.927Z,6.32
2023-04-18T12:28:34.301Z,8.90
2023-04-18T12:31:02.738Z,8.65
2023-04-18T12:33:32.779Z,7.65
2023-04-18T12:36:01.065Z,8.32
2023-04-18T12:38:29.439Z,8.27
2023-04-18T12:40:57.786Z,8.70
2023-04-18T12:43:26.615Z,7.85
2023-04-18T12:45:55.234Z,8.43
2023-04-18T12:48:23.491Z,7.75
2023-04-18T12:50:53.228Z,8.32
2023-04-18T12:53:21.633Z,8.17
2023-04-18T12:55:50.029Z,8.10
2023-04-18T12:58:20.597Z,8.05
2023-04-18T13:03:17.375Z,7.50
2023-04-18T13:05:46.097Z,8.70
2023-04-18T13:08:17.952Z,8.10
2023-04-18T13:10:47.689Z,8.38
2023-04-18T13:13:16.260Z,5.73
2023-04-18T13:15:44.594Z,5.78
2023-04-18T13:18:12.784Z,5.03
2023-04-18T13:20:41.108Z,5.30
2023-04-18T13:23:09.373Z,4.90
2023-04-18T13:25:39.404Z,5.93
2023-04-18T13:28:07.722Z,5.32
2023-04-18T13:30:36.632Z,5.40
2023-04-18T13:33:05.036Z,6.07
2023-04-18T13:35:33.359Z,6.20
2023-04-18T13:38:01.567Z,4.88
2023-04-18T13:40:29.883Z,6.22
2023-04-18T13:42:59.491Z,4.88
2023-04-18T13:45:27.783Z,5.05
2023-04-18T13:47:56.087Z,4.70
2023-04-18T13:50:24.507Z,5.18
2023-04-18T13:52:54.500Z,5.30
2023-04-18T13:55:22.935Z,5.68
2023-04-18T13:57:51.318Z,5.88
2023-04-18T14:00:21.624Z,6.80
2023-04-18T14:02:50.401Z,7.40
2023-04-18T14:05:18.877Z,6.32
2023-04-18T14:07:48.540Z,5.78
2023-04-18T14:10:16.906Z,6.77
2023-04-18T14:12:45.270Z,5.75
2023-04-18T14:15:13.550Z,7.30
2023-04-18T14:17:45.458Z,5.75
2023-04-18T14:20:15.692Z,5.30
2023-04-18T14:22:43.974Z,7.80
2023-04-18T14:25:12.379Z,7.35
2023-04-18T14:27:40.733Z,6.80
2023-04-18T14:30:10.285Z,7.13
2023-04-18T14:32:38.602Z,7.80
2023-04-18T14:35:09.459Z,7.47
2023-04-18T14:37:37.734Z,7.30
2023-04-18T14:40:08.200Z,9.07
2023-04-18T14:42:36.476Z,7.35
2023-04-18T14:45:05.570Z,6.60
2023-04-18T14:47:34.834Z,8.40
2023-04-18T14:50:03.261Z,8.23
2023-04-18T14:52:32.944Z,8.82
2023-04-18T14:55:01.244Z,8.43
2023-04-18T14:57:29.512Z,6.88
2023-04-18T14:59:57.800Z,6.60
2023-04-18T15:02:26.308Z,7.72
2023-04-18T15:04:55.085Z,6.22
2023-04-18T15:07:23.397Z,7.63
2023-04-18T15:09:53.335Z,6.57
2023-04-18T15:12:21.555Z,6.70
2023-04-18T15:14:49.846Z,6.60
2023-04-18T15:17:18.154Z,6.35
2023-04-18T15:19:46.416Z,6.28
2023-04-18T15:22:14.751Z,5.72
2023-04-18T15:24:43.068Z,6.40
2023-04-18T15:27:12.892Z,6.35
2023-04-18T15:29:41.154Z,6.25
2023-04-18T15:32:10.121Z,6.15
2023-04-18T15:34:38.416Z,7.10
2023-04-18T15:37:07.055Z,6.53
2023-04-18T15:39:35.487Z,6.85
2023-04-18T15:42:03.825Z,6.72
2023-04-18T15:44:33.440Z,6.57
2023-04-18T15:47:01.895Z,7.20
2023-04-18T15:49:30.281Z,7.10
2023-04-18T15:51:58.631Z,6.75
2023-04-18T15:54:27.104Z,6.70
2023-04-18T15:56:55.567Z,7.03
2023-04-18T15:59:23.828Z,6.57
2023-04-18T16:01:53.496Z,8.13
2023-04-18T16:04:21.899Z,7.70
2023-04-18T16:06:50.261Z,7.63
2023-04-18T16:09:18.548Z,5.95
2023-04-18T16:11:46.831Z,6.72
2023-04-18T16:14:15.263Z,7.18
2023-04-18T16:16:43.733Z,7.18
2023-04-18T16:19:14.312Z,6.30
2023-04-18T16:24:10.675Z,6.05
2023-04-18T16:26:38.894Z,7.07
2023-04-18T16:29:07.181Z,6.13
2023-04-18T16:31:35.601Z,7.60
2023-04-18T16:34:04.179Z,8.02
2023-04-18T16:36:35.683Z,7.10
2023-04-18T16:39:04.704Z,7.10
2023-04-18T16:41:33.051Z,8.38
2023-04-18T16:44:01.313Z,7.63
2023-04-18T16:46:32.324Z,7.22
2023-04-18T16:49:01.577Z,5.80
2023-04-18T16:51:29.890Z,4.40
2023-04-18T16:53:59.524Z,6.25
2023-04-18T16:56:27.787Z,6.38
2023-04-18T16:58:56.116Z,6.00
2023-04-18T17:01:24.414Z,6.85
2023-04-18T17:03:52.923Z,6.38
2023-04-18T17:06:22.820Z,6.38
2023-04-18T17:08:53.441Z,5.90
2023-04-18T17:13:51.456Z,6.93
2023-04-18T17:16:19.792Z,6.75
2023-04-18T17:18:48.077Z,4.38
2023-04-18T17:21:16.357Z,7.18
2023-04-18T17:23:44.665Z,7.28
2023-04-18T17:26:13.005Z,6.43
2023-04-18T17:28:43.020Z,6.78
2023-04-18T17:31:11.615Z,6.18
2023-04-18T17:33:39.970Z,7.47
2023-04-18T17:36:08.766Z,5.40
2023-04-18T17:38:37.116Z,6.32
2023-04-18T17:41:05.811Z,5.47
2023-04-18T17:43:34.126Z,7.03
2023-04-18T17:46:04.009Z,7.05
2023-04-18T17:48:32.337Z,7.00
2023-04-18T17:51:00.733Z,8.23
2023-04-18T17:53:31.583Z,6.05
2023-04-18T17:56:00.628Z,6.45
2023-04-18T17:58:29.388Z,8.23
2023-04-18T18:00:57.732Z,6.15
2023-04-18T18:03:27.693Z,7.55
2023-04-18T18:05:56.079Z,8.18
2023-04-18T18:08:24.361Z,8.20
2023-04-18T18:10:52.671Z,6.38
2023-04-18T18:13:20.729Z,7.63
2023-04-18T18:15:48.823Z,7.38
2023-04-18T18:18:17.052Z,7.18
2023-04-18T18:20:46.695Z,7.43
2023-04-18T18:23:14.952Z,10.52
2023-04-18T18:25:43.363Z,7.88
2023-04-18T18:28:11.793Z,5.80
2023-04-18T18:30:40.032Z,6.40
2023-04-18T18:33:08.372Z,9.13
2023-04-18T18:35:37.040Z,7.72
2023-04-18T18:38:07.202Z,8.57
2023-04-18T18:40:35.600Z,8.52
2023-04-18T18:43:03.872Z,8.07
2023-04-18T18:45:32.107Z,6.85
2023-04-18T18:48:00.542Z,7.18
2023-04-18T18:50:28.826Z,5.30
2023-04-18T18:52:57.105Z,4.43
2023-04-18T18:55:26.887Z,6.63
2023-04-18T18:57:55.356Z,6.90
2023-04-18T19:00:23.821Z,7.40
2023-04-18T19:02:52.360Z,8.18
2023-04-18T19:05:21.179Z,6.80
2023-04-18T19:07:51.457Z,6.35
2023-04-18T19:10:19.861Z,6.68
2023-04-18T19:12:49.748Z,7.32
2023-04-18T19:15:18.084Z,8.15
2023-04-18T19:17:46.356Z,7.25
2023-04-18T19:20:14.673Z,8.98
2023-04-18T19:22:43.019Z,7.82
2023-04-18T19:25:11.572Z,6.90
2023-04-18T19:27:39.871Z,5.22
2023-04-18T19:30:10.701Z,8.18
2023-04-18T19:32:39.033Z,7.10
2023-04-18T19:35:09.878Z,6.63
2023-04-18T19:37:38.158Z,7.72
2023-04-18T19:40:07.781Z,8.57
2023-04-18T19:42:36.034Z,9.57
2023-04-18T19:45:04.866Z,8.52
2023-04-18T19:47:34.762Z,7.70
2023-04-18T19:50:03.117Z,7.93
2023-04-18T19:52:31.345Z,7.25
2023-04-18T19:54:59.568Z,8.70
2023-04-18T19:57:29.023Z,7.78
2023-04-18T19:59:57.272Z,9.73
2023-04-18T20:02:25.625Z,8.45
2023-04-18T20:04:55.401Z,8.70
2023-04-18T20:07:26.251Z,6.65
2023-04-18T20:09:54.687Z,8.63
2023-04-18T20:12:23.450Z,7.68
2023-04-18T20:14:51.916Z,8.38
2023-04-18T20:17:20.424Z,8.43
2023-04-18T20:19:49.735Z,9.57
2023-04-18T20:22:19.793Z,6.95
2023-04-18T20:24:48.779Z,8.82
2023-04-18T20:27:20.356Z,7.78
2023-04-18T20:29:48.692Z,9.00
2023-04-18T20:32:17.007Z,7.90
2023-04-18T20:34:45.759Z,6.85
2023-04-18T20:37:15.545Z,9.07
2023-04-18T20:39:45.587Z,8.55
2023-04-18T20:42:14.767Z,9.15
2023-04-18T20:44:44.783Z,8.30
2023-04-18T20:47:15.242Z,8.75
2023-04-18T20:49:44.092Z,8.40
2023-04-18T20:52:14.361Z,8.35
2023-04-18T20:54:42.829Z,8.23
2023-04-18T20:57:12.427Z,8.27
2023-04-18T20:59:40.654Z,8.43
2023-04-18T21:02:09.437Z,7.82
2023-04-18T21:04:38.058Z,8.68
2023-04-18T21:07:06.430Z,7.10
2023-04-18T21:09:36.559Z,8.35
2023-04-18T21:12:05.834Z,7.88
2023-04-18T21:14:35.452Z,8.10
2023-04-18T21:17:03.816Z,7.35
2023-04-18T21:19:32.034Z,8.05
2023-04-18T21:22:00.277Z,9.38
2023-04-18T21:24:28.544Z,7.70
2023-04-18T21:26:57.730Z,8.38
2023-04-18T21:29:26.046Z,8.52
2023-04-18T21:31:55.927Z,8.48
2023-04-18T21:34:24.256Z,9.05
2023-04-18T21:36:52.504Z,9.45
2023-04-18T21:39:20.825Z,9.60
2023-04-18T21:41:49.090Z,8.88
2023-04-18T21:44:18.865Z,10.10
2023-04-18T21:46:47.185Z,9.77
2023-04-18T21:49:16.869Z,10.35
2023-04-18T21:51:45.870Z,10.50
2023-04-18T21:54:14.304Z,10.20
2023-04-18T21:56:42.910Z,9.00
2023-04-18T21:59:11.256Z,8.80
2023-04-18T22:01:39.629Z,9.05
2023-04-18T22:04:08.430Z,8.98
2023-04-18T22:06:38.106Z,8.77
2023-04-18T22:09:06.575Z,8.63
2023-04-18T22:11:34.906Z,8.85
2023-04-18T22:14:03.165Z,7.53
2023-04-18T22:16:33.386Z,8.13
2023-04-18T22:19:02.549Z,7.50
2023-04-18T22:21:31.383Z,7.28
2023-04-18T22:24:01.450Z,7.90
2023-04-18T22:26:30.199Z,7.10
2023-04-18T22:28:58.490Z,6.57
2023-04-18T22:31:26.804Z,7.13
2023-04-18T22:33:55.217Z,7.00
2023-04-18T22:36:23.471Z,6.93
2023-04-18T22:38:51.708Z,6.10
2023-04-18T22:41:21.275Z,7.00
2023-04-18T22:43:49.552Z,6.30
2023-04-18T22:46:17.846Z,5.90
2023-04-18T22:48:46.237Z,5.88
2023-04-18T22:51:14.888Z,6.70
2023-04-18T22:53:43.122Z,6.00
2023-04-18T22:56:11.461Z,6.88
2023-04-18T22:58:41.124Z,6.32
2023-04-18T23:01:09.460Z,6.90
2023-04-18T23:03:37.969Z,6.55
2023-04-18T23:06:08.132Z,5.70
2023-04-18T23:08:36.374Z,6.22
2023-04-18T23:11:04.658Z,6.55
2023-04-18T23:13:32.888Z,6.65
2023-04-18T23:16:02.528Z,6.68
2023-04-18T23:18:31.536Z,6.77
2023-04-18T23:21:00.812Z,6.80
2023-04-18T23:23:28.987Z,6.90
2023-04-18T23:25:57.361Z,6.30
2023-04-18T23:28:25.678Z,6.53
2023-04-18T23:30:53.937Z,6.40
2023-04-18T23:33:23.591Z,6.18
2023-04-18T23:35:51.863Z,7.30
2023-04-18T23:38:20.305Z,8.00
2023-04-18T23:40:48.550Z,7.10
2023-04-18T23:43:16.812Z,7.03
2023-04-18T23:45:45.355Z,8.20
2023-04-18T23:48:13.854Z,5.90
2023-04-18T23:50:48.072Z,7.65
2023-04-18T23:53:17.386Z,6.97
2023-04-18T23:55:46.152Z,6.75
2023-04-18T23:58:14.863Z,7.68
